This is the latest recevied weather packets stored in our database for station/object EB5AGF-13. If no packets are shown the sender has not sent any weather packets the latest 10 day(s).
| Time | Temp. | Humidity | Pressure | Rain* | Wind** | Luminosity | Snow |
|---|---|---|---|---|---|---|---|
| 1777879273 | 18.89° C | 89% | 1010.4 hPa | 0 mm | 1.79 m/s, 224° | 41 W/m² | - |
| 1777878969 | 18.89° C | 89% | 1009.9 hPa | 0 mm | 1.79 m/s, 119° | 64 W/m² | - |
| 1777878665 | 18.89° C | 89% | 1010.2 hPa | 0 mm | 2.68 m/s, 180° | 50 W/m² | - |
| 1777878361 | 18.89° C | 89% | 1009.9 hPa | 0 mm | 2.24 m/s, 333° | 57 W/m² | - |
| 1777878057 | 18.89° C | 89% | 1010.2 hPa | 0 mm | 0.89 m/s, 207° | 79 W/m² | - |
| 1777877753 | 18.89° C | 88% | 1010 hPa | 0 mm | 1.79 m/s, 178° | 66 W/m² | - |
| 1777877449 | 18.89° C | 88% | 1010 hPa | 0 mm | 3.13 m/s, 221° | 54 W/m² | - |
| 1777877145 | 18.89° C | 88% | 1010.1 hPa | 0 mm | 1.34 m/s, 212° | 48 W/m² | - |
| 1777876841 | 18.89° C | 88% | 1010.1 hPa | 0 mm | 2.68 m/s, 172° | 61 W/m² | - |
| 1777876537 | 18.89° C | 88% | 1010 hPa | 0 mm | 1.79 m/s, 223° | 68 W/m² | - |
| 1777876232 | 18.89° C | 89% | 1010.1 hPa | 0 mm | 1.79 m/s, 181° | 56 W/m² | - |
| 1777852825 | 18.89° C | 90% | 1010.7 hPa | 0 mm | 1.34 m/s, 209° | 0 W/m² | - |
| 1777852521 | 18.89° C | 90% | 1010.8 hPa | 0 mm | 0.89 m/s, 235° | 0 W/m² | - |
| 1777852218 | 18.89° C | 90% | 1010.5 hPa | 0 mm | 0.89 m/s, 258° | 0 W/m² | - |
| 1777851913 | 18.89° C | 90% | 1010.7 hPa | 0 mm | 0.89 m/s, 185° | 0 W/m² | - |
| 1777851609 | 18.89° C | 89% | 1010.6 hPa | 0 mm | 0.89 m/s, 192° | 0 W/m² | - |
| 1777851305 | 18.89° C | 89% | 1010.8 hPa | 0 mm | 0.45 m/s, 308° | 0 W/m² | - |
| 1777851002 | 18.89° C | 89% | 1010.8 hPa | 0 mm | 1.79 m/s, 208° | 0 W/m² | - |
| 1777850697 | 18.89° C | 88% | 1011 hPa | 0 mm | 0.45 m/s, 218° | 0 W/m² | - |
| 1777850394 | 18.89° C | 87% | 1010.6 hPa | 0 mm | 1.34 m/s, 168° | 0 W/m² | - |
| 1777850090 | 18.89° C | 87% | 1010.7 hPa | 0 mm | 1.34 m/s, 187° | 0 W/m² | - |
| 1777849785 | 18.89° C | 87% | 1011.1 hPa | 0 mm | 0.89 m/s, 252° | 0 W/m² | - |
| 1777849482 | 18.89° C | 88% | 1010.9 hPa | 0 mm | 0.45 m/s, 215° | 0 W/m² | - |
| 1777849178 | 18.89° C | 88% | 1010.8 hPa | 0 mm | 1.34 m/s, 232° | 0 W/m² | - |
| 1777848873 | 18.89° C | 88% | 1010.9 hPa | 0 mm | 0 m/s | 0 W/m² | - |
* Rain latest hour (hover to see other rain measurements)
** Current wind speed in m/s (hover to see current wind gust speed)